createdAt,value
2017-09-13T00:00:14.612Z,13.69
2017-09-13T00:01:16.487Z,13.69
2017-09-13T00:02:30.638Z,13.71
2017-09-13T00:03:32.515Z,13.63
2017-09-13T00:04:34.395Z,13.69
2017-09-13T00:05:36.281Z,13.69
2017-09-13T00:06:38.109Z,13.57
2017-09-13T00:07:39.928Z,13.55
2017-09-13T00:08:41.814Z,13.57
2017-09-13T00:09:43.686Z,13.54
2017-09-13T00:10:45.575Z,13.54
2017-09-13T00:11:59.731Z,13.46
2017-09-13T00:13:01.645Z,13.32
2017-09-13T00:14:03.525Z,13.42
2017-09-13T00:15:05.402Z,13.38
2017-09-13T00:16:07.222Z,13.41
2017-09-13T00:17:09.052Z,13.38
2017-09-13T00:18:10.934Z,13.41
2017-09-13T00:19:12.807Z,13.32
2017-09-13T00:20:14.689Z,13.41
2017-09-13T00:21:28.849Z,13.41
2017-09-13T00:22:30.725Z,13.39
2017-09-13T00:23:32.604Z,13.28
2017-09-13T00:24:34.492Z,13.32
2017-09-13T00:25:36.310Z,13.33
2017-09-13T00:26:38.140Z,13.29
2017-09-13T00:27:40.019Z,13.32
2017-09-13T00:28:41.897Z,13.33
2017-09-13T00:29:43.787Z,13.38
2017-09-13T00:30:57.995Z,13.42
2017-09-13T00:31:59.872Z,13.36
2017-09-13T00:33:01.753Z,13.32
2017-09-13T00:34:03.628Z,13.39
2017-09-13T00:35:05.451Z,13.38
2017-09-13T00:36:07.266Z,13.52
2017-09-13T00:37:09.145Z,13.52
2017-09-13T00:38:11.020Z,13.51
2017-09-13T00:39:12.933Z,13.55
2017-09-13T00:40:27.058Z,13.57
2017-09-13T00:41:28.934Z,13.59
2017-09-13T00:42:30.819Z,13.55
2017-09-13T00:43:32.689Z,13.52
2017-09-13T00:44:34.509Z,13.59
2017-09-13T00:45:36.329Z,13.54
2017-09-13T00:46:38.205Z,13.55
2017-09-13T00:47:40.093Z,13.46
2017-09-13T00:48:41.973Z,13.52
2017-09-13T00:49:56.138Z,13.57
2017-09-13T00:50:58.025Z,13.52
2017-09-13T00:51:59.899Z,13.55
2017-09-13T00:53:01.775Z,13.57
2017-09-13T00:54:03.594Z,13.60
2017-09-13T00:55:05.414Z,13.55
2017-09-13T00:56:07.290Z,13.49
2017-09-13T00:57:09.181Z,13.49
2017-09-13T00:58:11.063Z,13.54
2017-09-13T00:59:25.247Z,13.48
2017-09-13T01:00:27.097Z,13.48
2017-09-13T01:01:28.977Z,13.48
2017-09-13T01:02:30.865Z,13.51
2017-09-13T01:03:32.684Z,13.44
2017-09-13T01:04:34.502Z,13.51
2017-09-13T01:05:36.381Z,13.55
2017-09-13T01:06:38.259Z,13.54
2017-09-13T01:07:40.138Z,13.54
2017-09-13T01:08:54.293Z,13.54
2017-09-13T01:09:56.169Z,13.57
2017-09-13T01:10:58.054Z,13.70
2017-09-13T01:11:59.929Z,13.62
2017-09-13T01:13:01.747Z,13.79
2017-09-13T01:14:03.560Z,13.67
2017-09-13T01:15:05.435Z,13.71
2017-09-13T01:16:07.310Z,13.87
2017-09-13T01:17:09.198Z,13.88
2017-09-13T01:18:23.345Z,13.95
2017-09-13T01:19:25.218Z,13.89
2017-09-13T01:20:27.100Z,13.96
2017-09-13T01:21:28.976Z,13.97
2017-09-13T01:22:30.794Z,13.96
2017-09-13T01:23:32.608Z,14.03
2017-09-13T01:24:34.492Z,13.92
2017-09-13T01:25:36.377Z,13.91
2017-09-13T01:26:38.253Z,13.84
2017-09-13T01:27:52.400Z,13.78
2017-09-13T01:28:54.282Z,13.85
2017-09-13T01:29:56.152Z,13.71
2017-09-13T01:30:58.029Z,13.67
2017-09-13T01:31:59.845Z,13.75
2017-09-13T01:33:01.661Z,13.70
2017-09-13T01:34:03.539Z,13.69
2017-09-13T01:35:05.410Z,13.64
2017-09-13T01:36:07.287Z,13.69
2017-09-13T01:37:21.436Z,13.62
2017-09-13T01:38:23.322Z,13.52
2017-09-13T01:39:25.211Z,13.49
2017-09-13T01:40:27.086Z,13.49
2017-09-13T01:41:28.900Z,13.41
2017-09-13T01:42:30.714Z,13.39
2017-09-13T01:43:32.602Z,13.41
2017-09-13T01:44:34.477Z,13.41
2017-09-13T01:45:36.352Z,13.42
2017-09-13T01:46:50.537Z,13.33
2017-09-13T01:47:52.411Z,13.33
2017-09-13T01:48:54.291Z,13.33
2017-09-13T01:49:56.165Z,13.38
2017-09-13T01:50:57.982Z,13.41
2017-09-13T01:51:59.796Z,13.39
2017-09-13T01:53:01.681Z,13.38
2017-09-13T01:54:03.559Z,13.45
2017-09-13T01:55:05.431Z,13.32
2017-09-13T01:56:19.592Z,13.41
2017-09-13T01:57:21.466Z,13.29
2017-09-13T01:58:23.346Z,13.23
2017-09-13T01:59:25.223Z,13.28
2017-09-13T02:00:27.044Z,13.29
2017-09-13T02:01:28.865Z,13.26
2017-09-13T02:02:30.738Z,13.15
2017-09-13T02:03:32.626Z,13.15
2017-09-13T02:04:34.501Z,13.03
2017-09-13T02:05:48.697Z,13.04
2017-09-13T02:06:50.574Z,13.01
2017-09-13T02:07:52.464Z,12.97
2017-09-13T02:08:54.338Z,13.10
2017-09-13T02:09:56.157Z,12.96
2017-09-13T02:10:57.980Z,13.07
2017-09-13T02:11:59.860Z,13.15
2017-09-13T02:13:01.735Z,13.17
2017-09-13T02:14:03.612Z,13.11
2017-09-13T02:15:17.763Z,13.11
2017-09-13T02:16:19.649Z,13.19
2017-09-13T02:17:21.537Z,13.15
2017-09-13T02:18:23.407Z,13.10
2017-09-13T02:19:25.234Z,12.97
2017-09-13T02:20:27.049Z,12.96
2017-09-13T02:21:28.941Z,12.95
2017-09-13T02:22:30.815Z,12.97
2017-09-13T02:23:32.694Z,12.95
2017-09-13T02:24:46.893Z,12.93
2017-09-13T02:25:48.766Z,13.05
2017-09-13T02:26:50.647Z,12.96
2017-09-13T02:27:52.522Z,12.96
2017-09-13T02:28:54.339Z,12.96
2017-09-13T02:29:56.153Z,12.93
2017-09-13T02:30:58.027Z,12.92
2017-09-13T02:31:59.916Z,12.90
2017-09-13T02:33:01.793Z,12.82
2017-09-13T02:34:16.002Z,12.92
2017-09-13T02:35:17.879Z,12.86
2017-09-13T02:36:19.759Z,12.87
2017-09-13T02:37:21.636Z,12.92
2017-09-13T02:38:23.466Z,12.87
2017-09-13T02:39:25.278Z,12.95
2017-09-13T02:40:27.578Z,13.01
2017-09-13T02:41:29.488Z,13.01
2017-09-13T02:42:31.562Z,13.01
2017-09-13T02:43:45.773Z,13.14
2017-09-13T02:44:47.917Z,13.08
2017-09-13T02:45:50.165Z,13.20
2017-09-13T02:46:52.000Z,13.23
2017-09-13T02:47:53.815Z,13.29
2017-09-13T02:48:55.634Z,13.30
2017-09-13T02:49:57.510Z,13.30
2017-09-13T02:50:59.385Z,13.46
2017-09-13T02:52:01.261Z,13.55
2017-09-13T02:53:15.420Z,13.63
2017-09-13T02:54:17.296Z,13.69
2017-09-13T02:55:19.173Z,13.63
2017-09-13T02:56:21.048Z,13.69
2017-09-13T02:57:22.868Z,13.71
2017-09-13T02:58:24.693Z,13.70
2017-09-13T02:59:26.574Z,13.71
2017-09-13T03:00:28.453Z,13.75
2017-09-13T03:01:30.328Z,13.73
2017-09-13T03:02:44.476Z,13.77
2017-09-13T03:03:46.353Z,13.78
2017-09-13T03:04:48.243Z,13.84
2017-09-13T03:05:50.121Z,13.77
2017-09-13T03:06:51.936Z,13.81
2017-09-13T03:07:53.753Z,13.70
2017-09-13T03:08:55.628Z,13.73
2017-09-13T03:09:57.511Z,13.71
2017-09-13T03:10:59.387Z,13.66
2017-09-13T03:12:13.546Z,13.64
2017-09-13T03:13:15.423Z,13.51
2017-09-13T03:14:17.305Z,13.51
2017-09-13T03:15:19.182Z,13.51
2017-09-13T03:16:21.002Z,13.46
2017-09-13T03:17:22.815Z,13.42
2017-09-13T03:18:24.692Z,13.44
2017-09-13T03:19:26.569Z,13.36
2017-09-13T03:20:28.455Z,13.29
2017-09-13T03:21:42.605Z,13.26
2017-09-13T03:22:44.497Z,13.29
2017-09-13T03:23:46.379Z,13.28
2017-09-13T03:24:48.258Z,13.25
2017-09-13T03:25:50.073Z,13.32
2017-09-13T03:26:51.889Z,13.41
2017-09-13T03:27:53.768Z,13.39
2017-09-13T03:28:55.658Z,13.55
2017-09-13T03:29:57.537Z,13.49
2017-09-13T03:31:11.739Z,13.55
2017-09-13T03:32:13.619Z,13.48
2017-09-13T03:33:15.502Z,13.51
2017-09-13T03:34:17.379Z,13.62
2017-09-13T03:35:19.193Z,13.55
2017-09-13T03:36:21.019Z,13.66
2017-09-13T03:37:22.905Z,13.62
2017-09-13T03:38:24.780Z,13.70
2017-09-13T03:39:26.661Z,13.75
2017-09-13T03:40:40.820Z,13.84
2017-09-13T03:41:42.697Z,13.84
2017-09-13T03:42:44.590Z,13.89
2017-09-13T03:43:46.469Z,13.88
2017-09-13T03:44:48.286Z,13.84
2017-09-13T03:45:50.101Z,13.79
2017-09-13T03:46:51.940Z,13.78
2017-09-13T03:47:53.797Z,13.70
2017-09-13T03:48:55.621Z,13.70
2017-09-13T03:50:09.779Z,13.59
2017-09-13T03:51:11.668Z,13.59
2017-09-13T03:52:13.552Z,13.60
2017-09-13T03:53:15.430Z,13.52
2017-09-13T03:54:17.247Z,13.54
2017-09-13T03:55:19.061Z,13.44
2017-09-13T03:56:20.939Z,13.36
2017-09-13T03:57:22.818Z,13.38
2017-09-13T03:58:24.696Z,13.30
2017-09-13T03:59:38.894Z,13.26
2017-09-13T04:00:40.775Z,13.22
2017-09-13T04:01:42.658Z,13.25
2017-09-13T04:02:44.538Z,13.25
2017-09-13T04:03:46.353Z,13.07
2017-09-13T04:04:48.177Z,13.11
2017-09-13T04:05:50.057Z,13.07
2017-09-13T04:06:51.944Z,13.15
2017-09-13T04:07:53.824Z,13.10
2017-09-13T04:09:08.033Z,13.00
2017-09-13T04:10:09.927Z,13.00
2017-09-13T04:11:11.809Z,13.01
2017-09-13T04:12:13.690Z,12.90
2017-09-13T04:13:15.513Z,12.89
2017-09-13T04:14:17.323Z,12.86
2017-09-13T04:15:19.204Z,12.89
2017-09-13T04:16:21.082Z,12.85
2017-09-13T04:17:22.965Z,12.78
2017-09-13T04:18:37.116Z,12.77
2017-09-13T04:19:39.002Z,12.77
2017-09-13T04:20:40.881Z,12.74
2017-09-13T04:21:42.760Z,12.78
2017-09-13T04:22:44.579Z,12.77
2017-09-13T04:23:46.397Z,12.74
2017-09-13T04:24:48.274Z,12.78
2017-09-13T04:25:50.154Z,12.77
2017-09-13T04:26:52.037Z,12.75
2017-09-13T04:28:06.231Z,12.83
2017-09-13T04:29:08.084Z,12.75
2017-09-13T04:30:09.977Z,12.72
2017-09-13T04:31:11.858Z,12.82
2017-09-13T04:32:13.695Z,12.77
2017-09-13T04:33:15.517Z,12.85
2017-09-13T04:34:17.410Z,12.79
2017-09-13T04:35:19.290Z,12.82
2017-09-13T04:36:21.167Z,12.77
2017-09-13T04:37:35.320Z,12.78
2017-09-13T04:38:37.199Z,12.75
2017-09-13T04:39:39.081Z,12.87
2017-09-13T04:40:40.973Z,12.85
2017-09-13T04:41:42.791Z,12.83
2017-09-13T04:42:44.610Z,12.82
2017-09-13T04:43:46.489Z,12.90
2017-09-13T04:44:48.369Z,12.90
2017-09-13T04:45:50.250Z,12.87
2017-09-13T04:47:04.413Z,12.90
2017-09-13T04:48:06.292Z,12.86
2017-09-13T04:49:08.179Z,12.95
2017-09-13T04:50:10.062Z,13.00
2017-09-13T04:51:11.881Z,13.08
2017-09-13T04:52:13.698Z,13.07
2017-09-13T04:53:15.584Z,13.07
2017-09-13T04:54:17.466Z,13.08
2017-09-13T04:55:19.350Z,13.07
2017-09-13T04:56:33.510Z,13.03
2017-09-13T04:57:35.385Z,13.00
2017-09-13T04:58:37.269Z,12.93
2017-09-13T04:59:39.151Z,12.96
2017-09-13T05:00:40.985Z,13.03
2017-09-13T05:01:42.803Z,13.00
2017-09-13T05:02:44.694Z,13.07
2017-09-13T05:03:46.575Z,13.10
2017-09-13T05:04:48.456Z,12.95
2017-09-13T05:06:02.668Z,13.11
2017-09-13T05:07:04.555Z,12.96
2017-09-13T05:08:06.436Z,12.96
2017-09-13T05:09:08.320Z,13.01
2017-09-13T05:10:10.141Z,12.95
2017-09-13T05:11:11.959Z,13.04
2017-09-13T05:12:13.843Z,13.07
2017-09-13T05:13:15.727Z,12.92
2017-09-13T05:14:17.612Z,13.01
2017-09-13T05:15:31.799Z,13.15
2017-09-13T05:16:33.682Z,13.01
2017-09-13T05:17:35.568Z,13.11
2017-09-13T05:18:37.449Z,13.15
2017-09-13T05:19:39.272Z,13.07
2017-09-13T05:20:41.093Z,13.14
2017-09-13T05:21:42.981Z,13.25
2017-09-13T05:22:44.862Z,13.11
2017-09-13T05:23:46.754Z,13.30
2017-09-13T05:25:00.910Z,13.22
2017-09-13T05:26:02.789Z,13.25
2017-09-13T05:27:04.680Z,13.29
2017-09-13T05:28:06.564Z,13.33
2017-09-13T05:29:08.386Z,13.39
2017-09-13T05:30:10.206Z,13.39
2017-09-13T05:31:12.084Z,13.48
2017-09-13T05:32:13.963Z,13.57
2017-09-13T05:33:15.854Z,13.71
2017-09-13T05:34:30.008Z,13.81
2017-09-13T05:35:31.887Z,13.95
2017-09-13T05:36:33.778Z,14.00
2017-09-13T05:37:35.661Z,14.07
2017-09-13T05:38:37.480Z,14.00
2017-09-13T05:39:39.298Z,14.10
2017-09-13T05:40:41.182Z,14.18
2017-09-13T05:41:43.063Z,14.17
2017-09-13T05:42:44.949Z,14.27
2017-09-13T05:43:59.104Z,14.36
2017-09-13T05:45:00.989Z,14.45
2017-09-13T05:46:02.873Z,14.54
2017-09-13T05:47:04.757Z,14.55
2017-09-13T05:48:06.591Z,14.64
2017-09-13T05:49:08.411Z,14.55
2017-09-13T05:50:10.293Z,14.52
2017-09-13T05:51:12.179Z,14.58
2017-09-13T05:52:14.060Z,14.77
2017-09-13T05:53:28.276Z,14.73
2017-09-13T05:54:30.158Z,14.88
2017-09-13T05:55:32.045Z,14.92
2017-09-13T05:56:33.928Z,14.78
2017-09-13T05:57:35.749Z,14.86
2017-09-13T05:58:37.580Z,14.75
2017-09-13T05:59:39.462Z,14.77
2017-09-13T06:00:41.346Z,14.75
2017-09-13T06:01:43.240Z,14.68
2017-09-13T06:02:57.395Z,14.64
2017-09-13T06:03:59.291Z,14.64
2017-09-13T06:05:01.183Z,14.60
2017-09-13T06:06:03.061Z,14.68
2017-09-13T06:07:04.882Z,14.57
2017-09-13T06:08:06.704Z,14.60
2017-09-13T06:09:08.590Z,14.60
2017-09-13T06:10:10.474Z,14.64
2017-09-13T06:11:12.356Z,14.65
2017-09-13T06:12:26.512Z,14.72
2017-09-13T06:13:28.398Z,14.77
2017-09-13T06:14:30.283Z,14.84
2017-09-13T06:15:32.170Z,14.84
2017-09-13T06:16:33.989Z,15.01
2017-09-13T06:17:35.808Z,15.11
2017-09-13T06:18:37.690Z,15.21
2017-09-13T06:19:39.572Z,15.27
2017-09-13T06:20:41.457Z,15.29
2017-09-13T06:21:55.613Z,15.50
2017-09-13T06:22:57.496Z,15.51
2017-09-13T06:23:59.383Z,15.64
2017-09-13T06:25:01.266Z,15.65
2017-09-13T06:26:03.098Z,15.69
2017-09-13T06:27:04.907Z,15.51
2017-09-13T06:28:06.789Z,15.49
2017-09-13T06:29:08.667Z,15.51
2017-09-13T06:30:10.561Z,15.35
2017-09-13T06:31:24.717Z,15.32
2017-09-13T06:32:26.600Z,15.39
2017-09-13T06:33:28.494Z,15.35
2017-09-13T06:34:30.380Z,15.36
2017-09-13T06:35:32.208Z,15.35
2017-09-13T06:36:34.021Z,15.35
2017-09-13T06:37:35.913Z,15.27
2017-09-13T06:38:37.808Z,15.27
2017-09-13T06:39:39.688Z,15.25
2017-09-13T06:40:53.848Z,15.27
2017-09-13T06:41:55.728Z,15.16
2017-09-13T06:42:57.624Z,15.09
2017-09-13T06:43:59.508Z,15.20
2017-09-13T06:45:01.330Z,15.07
2017-09-13T06:46:03.161Z,15.10
2017-09-13T06:47:05.044Z,15.11
2017-09-13T06:48:06.926Z,15.13
2017-09-13T06:49:08.809Z,14.99
2017-09-13T06:50:22.965Z,15.02
2017-09-13T06:51:24.848Z,14.86
2017-09-13T06:52:26.736Z,14.92
2017-09-13T06:53:28.619Z,14.96
2017-09-13T06:54:30.443Z,14.91
2017-09-13T06:55:32.262Z,14.88
2017-09-13T06:56:34.156Z,14.94
2017-09-13T06:57:36.041Z,14.99
2017-09-13T06:58:37.925Z,14.91
2017-09-13T06:59:52.081Z,14.84
2017-09-13T07:00:53.980Z,14.99
2017-09-13T07:01:55.867Z,15.03
2017-09-13T07:02:57.752Z,15.01
2017-09-13T07:03:59.574Z,15.17
2017-09-13T07:05:01.394Z,15.16
2017-09-13T07:06:03.274Z,15.17
2017-09-13T07:07:05.160Z,15.34
2017-09-13T07:08:07.042Z,15.35
2017-09-13T07:09:21.199Z,15.39
2017-09-13T07:10:23.080Z,15.35
2017-09-13T07:11:24.964Z,15.46
2017-09-13T07:12:26.847Z,15.62
2017-09-13T07:13:28.672Z,15.72
2017-09-13T07:14:30.506Z,15.93
2017-09-13T07:15:32.391Z,16.08
2017-09-13T07:16:34.285Z,16.17
2017-09-13T07:17:36.160Z,16.24
2017-09-13T07:18:50.324Z,16.31
2017-09-13T07:19:52.202Z,16.38
2017-09-13T07:20:54.098Z,16.45
2017-09-13T07:21:55.989Z,16.48
2017-09-13T07:22:57.812Z,16.50
2017-09-13T07:23:59.637Z,16.52
2017-09-13T07:25:01.520Z,16.70
2017-09-13T07:26:03.415Z,16.88
2017-09-13T07:27:05.298Z,16.97
2017-09-13T07:28:19.455Z,16.97
2017-09-13T07:29:21.338Z,17.06
2017-09-13T07:30:23.230Z,16.97
2017-09-13T07:31:25.110Z,17.01
2017-09-13T07:32:26.937Z,17.00
2017-09-13T07:33:28.759Z,17.14
2017-09-13T07:34:30.641Z,17.15
2017-09-13T07:35:32.523Z,17.15
2017-09-13T07:36:34.406Z,17.03
2017-09-13T07:37:48.566Z,17.08
2017-09-13T07:38:50.450Z,17.12
2017-09-13T07:39:52.334Z,17.06
2017-09-13T07:40:54.218Z,17.08
2017-09-13T07:41:56.042Z,17.21
2017-09-13T07:42:57.878Z,17.31
2017-09-13T07:43:59.761Z,17.25
2017-09-13T07:45:01.656Z,17.34
2017-09-13T07:46:03.539Z,17.19
2017-09-13T07:47:17.696Z,17.19
2017-09-13T07:48:19.577Z,17.22
2017-09-13T07:49:21.466Z,17.14
2017-09-13T07:50:23.350Z,17.08
2017-09-13T07:51:25.182Z,17.07
2017-09-13T07:52:27.004Z,17.06
2017-09-13T07:53:28.887Z,17.00
2017-09-13T07:54:30.770Z,16.94
2017-09-13T07:55:32.655Z,16.94
2017-09-13T07:56:46.814Z,16.96
2017-09-13T07:57:48.696Z,16.93
2017-09-13T07:58:50.605Z,16.93
2017-09-13T07:59:52.482Z,16.86
2017-09-13T08:00:54.313Z,16.93
2017-09-13T08:01:56.127Z,16.94
2017-09-13T08:02:58.009Z,16.79
2017-09-13T08:03:59.891Z,16.81
2017-09-13T08:05:02.106Z,16.75
2017-09-13T08:06:16.268Z,16.73
2017-09-13T08:07:18.152Z,16.75
2017-09-13T08:08:20.039Z,16.76
2017-09-13T08:09:21.922Z,16.73
2017-09-13T08:10:23.755Z,16.85
2017-09-13T08:11:25.581Z,16.83
2017-09-13T08:12:27.464Z,16.83
2017-09-13T08:13:29.347Z,16.89
2017-09-13T08:14:31.240Z,16.83
2017-09-13T08:15:45.397Z,16.83
2017-09-13T08:16:47.279Z,16.83
2017-09-13T08:17:49.164Z,16.89
2017-09-13T08:18:51.047Z,16.83
2017-09-13T08:19:52.873Z,16.88
2017-09-13T08:20:54.697Z,16.88
2017-09-13T08:21:56.588Z,16.81
2017-09-13T08:22:58.939Z,16.91
2017-09-13T08:24:00.788Z,16.79
2017-09-13T08:25:14.995Z,16.86
2017-09-13T08:26:16.880Z,16.86
2017-09-13T08:27:18.765Z,16.89
2017-09-13T08:28:20.649Z,16.91
2017-09-13T08:29:22.471Z,16.96
2017-09-13T08:30:24.290Z,17.00
2017-09-13T08:31:26.182Z,16.98
2017-09-13T08:32:28.066Z,16.97
2017-09-13T08:33:29.950Z,17.00
2017-09-13T08:34:44.105Z,16.96
2017-09-13T08:35:45.987Z,16.91
2017-09-13T08:36:47.877Z,16.93
2017-09-13T08:37:49.758Z,16.89
2017-09-13T08:38:51.628Z,17.03
2017-09-13T08:39:53.416Z,17.01
2017-09-13T08:40:55.299Z,17.07
2017-09-13T08:41:57.184Z,17.15
2017-09-13T08:42:59.068Z,17.07
2017-09-13T08:44:13.224Z,17.26
2017-09-13T08:45:15.110Z,17.28
2017-09-13T08:46:16.998Z,17.14
2017-09-13T08:47:18.883Z,17.12
2017-09-13T08:48:20.719Z,17.11
2017-09-13T08:49:22.553Z,17.06
2017-09-13T08:50:24.399Z,17.01
2017-09-13T08:51:26.222Z,17.03
2017-09-13T08:52:28.058Z,17.11
2017-09-13T08:53:42.239Z,17.11
2017-09-13T08:54:44.124Z,17.33
2017-09-13T08:55:46.014Z,17.46
2017-09-13T08:56:47.900Z,17.68
2017-09-13T08:57:49.723Z,17.71
2017-09-13T08:58:51.566Z,17.82
2017-09-13T08:59:53.448Z,17.77
2017-09-13T09:00:55.335Z,17.90
2017-09-13T09:01:57.220Z,17.96
2017-09-13T09:03:11.380Z,18.08
2017-09-13T09:04:13.265Z,18.15
2017-09-13T09:05:15.153Z,18.20
2017-09-13T09:06:17.057Z,18.32
2017-09-13T09:07:18.864Z,18.32
2017-09-13T09:08:20.688Z,18.32
2017-09-13T09:09:22.570Z,18.27
2017-09-13T09:10:24.420Z,18.23
2017-09-13T09:11:26.255Z,18.27
2017-09-13T09:12:40.411Z,18.30
2017-09-13T09:13:42.296Z,18.32
2017-09-13T09:14:44.185Z,18.44
2017-09-13T09:15:46.070Z,18.48
2017-09-13T09:16:47.894Z,18.57
2017-09-13T09:17:49.716Z,18.51
2017-09-13T09:18:51.601Z,18.41
2017-09-13T09:19:53.487Z,18.27
2017-09-13T09:20:55.385Z,18.17
2017-09-13T09:22:09.546Z,18.08
2017-09-13T09:23:11.431Z,18.15
2017-09-13T09:24:13.321Z,18.25
2017-09-13T09:25:15.206Z,18.33
2017-09-13T09:26:17.031Z,18.41
2017-09-13T09:27:18.870Z,18.48
2017-09-13T09:28:20.750Z,18.58
2017-09-13T09:29:22.645Z,18.50
2017-09-13T09:30:24.529Z,18.45
2017-09-13T09:31:38.706Z,18.41
2017-09-13T09:32:40.588Z,18.32
2017-09-13T09:33:42.479Z,18.21
2017-09-13T09:34:44.364Z,18.10
2017-09-13T09:35:46.201Z,17.90
2017-09-13T09:36:48.025Z,17.89
2017-09-13T09:37:49.909Z,17.84
2017-09-13T09:38:51.799Z,17.81
2017-09-13T09:39:53.690Z,17.68
2017-09-13T09:41:07.865Z,17.70
2017-09-13T09:42:09.748Z,17.78
2017-09-13T09:43:11.638Z,17.82
2017-09-13T09:44:13.533Z,17.79
2017-09-13T09:45:15.362Z,17.78
2017-09-13T09:46:17.184Z,17.84
2017-09-13T09:47:19.070Z,17.79
2017-09-13T09:48:20.954Z,17.70
2017-09-13T09:49:22.846Z,17.63
2017-09-13T09:50:37.065Z,17.71
2017-09-13T09:51:38.975Z,17.63
2017-09-13T09:52:40.841Z,17.66
2017-09-13T09:53:42.734Z,17.70
2017-09-13T09:54:44.560Z,17.71
2017-09-13T09:55:46.383Z,17.70
2017-09-13T09:56:48.269Z,17.74
2017-09-13T09:57:50.154Z,17.62
2017-09-13T09:58:52.040Z,17.59
2017-09-13T10:00:06.198Z,17.52
2017-09-13T10:01:08.085Z,17.56
2017-09-13T10:02:09.973Z,17.49
2017-09-13T10:03:11.857Z,17.44
2017-09-13T10:04:13.682Z,17.43
2017-09-13T10:05:15.501Z,17.48
2017-09-13T10:06:17.385Z,17.49
2017-09-13T10:07:19.272Z,17.62
2017-09-13T10:08:21.158Z,17.56
2017-09-13T10:09:35.324Z,17.58
2017-09-13T10:10:37.204Z,17.64
2017-09-13T10:11:39.093Z,17.68
2017-09-13T10:12:40.997Z,17.74
2017-09-13T10:13:42.806Z,17.68
2017-09-13T10:14:44.628Z,17.84
2017-09-13T10:15:46.523Z,17.84
2017-09-13T10:16:48.412Z,17.87
2017-09-13T10:17:50.295Z,17.92
2017-09-13T10:19:04.455Z,17.95
2017-09-13T10:20:06.341Z,17.95
2017-09-13T10:21:08.232Z,18.12
2017-09-13T10:22:10.118Z,18.20
2017-09-13T10:23:11.944Z,18.21
2017-09-13T10:24:13.765Z,18.25
2017-09-13T10:25:15.661Z,18.33
2017-09-13T10:26:17.551Z,18.25
2017-09-13T10:27:19.435Z,18.27
2017-09-13T10:28:33.594Z,18.21
2017-09-13T10:29:35.481Z,18.18
2017-09-13T10:30:37.381Z,18.12
2017-09-13T10:31:39.268Z,18.15
2017-09-13T10:32:41.104Z,18.12
2017-09-13T10:33:42.929Z,18.12
2017-09-13T10:34:44.833Z,18.11
2017-09-13T10:35:46.737Z,18.18
2017-09-13T10:36:48.622Z,18.20
2017-09-13T10:38:02.779Z,18.30
2017-09-13T10:39:04.666Z,18.25
2017-09-13T10:40:06.556Z,18.27
2017-09-13T10:41:08.443Z,18.27
2017-09-13T10:42:10.277Z,18.36
2017-09-13T10:43:12.102Z,18.44
2017-09-13T10:44:13.988Z,18.57
2017-09-13T10:45:15.875Z,18.62
2017-09-13T10:46:17.762Z,18.62
2017-09-13T10:47:31.972Z,18.81
2017-09-13T10:48:33.875Z,18.91
2017-09-13T10:49:35.819Z,18.95
2017-09-13T10:50:37.705Z,19.10
2017-09-13T10:51:39.531Z,19.08
2017-09-13T10:52:41.356Z,19.21
2017-09-13T10:53:43.249Z,19.16
2017-09-13T10:54:45.135Z,19.16
2017-09-13T10:55:47.023Z,19.19
2017-09-13T10:57:01.180Z,19.00
2017-09-13T10:58:03.065Z,19.06
2017-09-13T10:59:04.966Z,19.08
2017-09-13T11:00:06.841Z,19.02
2017-09-13T11:01:08.679Z,19.11
2017-09-13T11:02:10.505Z,19.08
2017-09-13T11:03:12.390Z,19.13
2017-09-13T11:04:14.639Z,19.16
2017-09-13T11:05:16.866Z,19.21
2017-09-13T11:06:31.032Z,19.29
2017-09-13T11:07:32.917Z,19.28
2017-09-13T11:08:34.804Z,19.44
2017-09-13T11:09:36.688Z,19.33
2017-09-13T11:10:38.518Z,19.33
2017-09-13T11:11:40.344Z,19.33
2017-09-13T11:12:42.224Z,19.25
2017-09-13T11:13:44.108Z,19.36
2017-09-13T11:14:45.994Z,19.31
2017-09-13T11:16:00.152Z,19.31
2017-09-13T11:17:02.039Z,19.22
2017-09-13T11:18:03.932Z,19.26
2017-09-13T11:19:05.818Z,19.33
2017-09-13T11:20:07.646Z,19.40
2017-09-13T11:21:09.466Z,19.58
2017-09-13T11:22:11.351Z,19.80
2017-09-13T11:23:13.237Z,19.86
2017-09-13T11:24:15.484Z,20.06
2017-09-13T11:25:29.616Z,20.31
2017-09-13T11:26:31.505Z,20.31
2017-09-13T11:27:33.389Z,20.29
2017-09-13T11:28:35.276Z,20.36
2017-09-13T11:29:37.107Z,20.36
2017-09-13T11:30:38.933Z,20.39
2017-09-13T11:31:40.830Z,20.57
2017-09-13T11:32:42.716Z,20.73
2017-09-13T11:33:44.601Z,20.85
2017-09-13T11:34:58.765Z,21.06
2017-09-13T11:36:00.655Z,21.10
2017-09-13T11:37:02.541Z,21.13
2017-09-13T11:38:04.425Z,21.13
2017-09-13T11:39:06.264Z,21.10
2017-09-13T11:40:08.090Z,20.99
2017-09-13T11:41:09.977Z,20.97
2017-09-13T11:42:11.864Z,20.89
2017-09-13T11:43:13.760Z,20.85
2017-09-13T11:44:27.919Z,20.94
2017-09-13T11:45:29.818Z,20.98
2017-09-13T11:46:31.708Z,21.04
2017-09-13T11:47:33.599Z,21.21
2017-09-13T11:48:35.427Z,21.27
2017-09-13T11:49:37.254Z,21.28
2017-09-13T11:50:39.140Z,21.35
2017-09-13T11:51:41.029Z,21.17
2017-09-13T11:52:42.912Z,21.27
2017-09-13T11:53:57.083Z,21.31
2017-09-13T11:54:58.974Z,21.28
2017-09-13T11:56:00.866Z,21.28
2017-09-13T11:57:02.753Z,21.22
2017-09-13T11:58:04.578Z,21.13
2017-09-13T11:59:06.403Z,21.13
2017-09-13T12:00:08.288Z,20.94
2017-09-13T12:01:10.139Z,20.80
2017-09-13T12:02:11.964Z,20.67
2017-09-13T12:03:26.124Z,20.54
2017-09-13T12:04:28.009Z,20.54
2017-09-13T12:05:29.897Z,20.48
2017-09-13T12:06:31.783Z,20.36
2017-09-13T12:07:33.609Z,20.35
2017-09-13T12:08:35.433Z,20.32
2017-09-13T12:09:37.328Z,20.24
2017-09-13T12:10:39.239Z,20.08
2017-09-13T12:11:41.101Z,19.96
2017-09-13T12:12:55.259Z,19.96
2017-09-13T12:13:57.144Z,19.87
2017-09-13T12:14:59.033Z,19.81
2017-09-13T12:16:00.919Z,19.63
2017-09-13T12:17:02.759Z,19.62
2017-09-13T12:18:04.569Z,19.50
2017-09-13T12:19:06.453Z,19.44
2017-09-13T12:20:08.338Z,19.37
2017-09-13T12:21:10.223Z,19.41
2017-09-13T12:22:24.381Z,19.36
2017-09-13T12:23:26.266Z,19.26
2017-09-13T12:24:28.166Z,19.21
2017-09-13T12:25:30.065Z,19.26
2017-09-13T12:26:31.894Z,19.39
2017-09-13T12:27:33.725Z,19.43
2017-09-13T12:28:35.623Z,19.65
2017-09-13T12:29:37.501Z,19.69
2017-09-13T12:30:39.384Z,19.74
2017-09-13T12:31:53.547Z,19.87
2017-09-13T12:32:55.434Z,19.87
2017-09-13T12:33:57.327Z,19.94
2017-09-13T12:34:59.212Z,19.80
2017-09-13T12:36:01.036Z,19.76
2017-09-13T12:37:02.877Z,19.66
2017-09-13T12:38:04.759Z,19.71
2017-09-13T12:39:06.646Z,19.69
2017-09-13T12:40:08.536Z,19.73
2017-09-13T12:41:22.693Z,19.73
2017-09-13T12:42:24.586Z,19.74
2017-09-13T12:43:26.479Z,19.78
2017-09-13T12:44:28.359Z,19.77
2017-09-13T12:45:30.182Z,19.66
2017-09-13T12:46:32.010Z,19.77
2017-09-13T12:47:33.893Z,19.83
2017-09-13T12:48:35.778Z,19.95
2017-09-13T12:49:37.659Z,20.05
2017-09-13T12:50:51.826Z,20.11
2017-09-13T12:51:53.718Z,20.05
2017-09-13T12:52:55.606Z,20.13
2017-09-13T12:53:57.501Z,20.23
2017-09-13T12:54:59.323Z,20.38
2017-09-13T12:56:01.144Z,20.50
2017-09-13T12:57:03.037Z,20.57
2017-09-13T12:58:04.921Z,20.66
2017-09-13T12:59:06.813Z,20.70
2017-09-13T13:00:20.982Z,20.76
2017-09-13T13:01:22.867Z,20.72
2017-09-13T13:02:24.756Z,20.77
2017-09-13T13:03:26.649Z,20.67
2017-09-13T13:04:28.481Z,20.73
2017-09-13T13:05:30.341Z,20.58
2017-09-13T13:06:32.702Z,20.52
2017-09-13T13:07:34.727Z,20.41
2017-09-13T13:08:36.619Z,20.32
2017-09-13T13:09:50.784Z,20.39
2017-09-13T13:10:52.667Z,20.33
2017-09-13T13:11:54.563Z,20.23
2017-09-13T13:12:56.464Z,20.29
2017-09-13T13:13:58.663Z,20.29
2017-09-13T13:15:00.518Z,20.38
2017-09-13T13:16:02.415Z,20.36
2017-09-13T13:17:04.296Z,20.39
2017-09-13T13:18:06.179Z,20.31
2017-09-13T13:19:20.355Z,20.32
2017-09-13T13:20:22.239Z,20.08
2017-09-13T13:21:24.125Z,19.99
2017-09-13T13:22:26.026Z,20.01
2017-09-13T13:23:27.864Z,19.78
2017-09-13T13:24:29.686Z,19.71
2017-09-13T13:25:31.566Z,19.56
2017-09-13T13:26:33.463Z,19.51
2017-09-13T13:27:35.352Z,19.58
2017-09-13T13:28:49.512Z,19.56
2017-09-13T13:29:51.415Z,19.41
2017-09-13T13:30:53.298Z,19.40
2017-09-13T13:31:55.190Z,19.44
2017-09-13T13:32:57.024Z,19.43
2017-09-13T13:33:58.847Z,19.44